août
17

MOTOCROSS MONDIAL FIM – GP D’ANGLETERRE : PREMIERS RÉSULTATS

Round 7-Great Britain – Matterley Basin, Winchester – 19 Aug 2012
WMX – Race 1 – Classification

Pos Nr Rider Nat. Fed. Bike Time laps Diff. First Diff. Prev. Bestlaptime in lap Speed
1 8 Fontanesi, Chiara ITA FMI Yamaha 26:14.078 11 0:00.000 0:00.000 2:08.793 2 45.841
2 114 Lancelot, Livia FRA FFM Kawasaki 26:26.976 11 0:12.898 0:12.898 2:10.036 6 45.403
3 44 Kane, Natalie GBR MCUI KTM 27:27.371 11 1:13.293 1:00.395 2:10.968 5 45.08
4 111 Borchers, Anne GER DMSB Suzuki 27:28.074 11 1:13.996 0:00.703 2:15.616 2 43.535
5 46 van der Wekken, Britt NED KNMV Honda 27:34.192 11 1:20.114 0:06.118 2:16.459 3 43.266
6 52 Charroux, Justine FRA FFM Yamaha 27:36.849 11 1:22.771 0:02.657 2:16.414 4 43.28
7 18 Germond, Virginie SUI FMS Suzuki 27:43.853 11 1:29.775 0:07.004 2:17.398 10 42.97
8 79 Seisdedos, Gabriela ESP RFME Kawasaki 27:47.613 11 1:33.535 0:03.760 2:17.347 7 42.986
9 21 Irmgartz, Kim GER DMSB Suzuki 26:16.266 10 1 lap 1 lap 2:19.123 6 42.437
10 98 Schittenhelm, Selina GER DMSB KTM 26:30.604 10 1 lap 0:14.338 2:22.810 3 41.342
11 11 Goodlad, Amie GBR ACU Honda 26:32.176 10 1 lap 0:01.572 2:23.406 6 41.17
12 23 Paull, Sophia GBR ACU Honda 26:34.717 10 1 lap 0:02.541 2:23.041 5 41.275
13 39 Fisher, Stacey GBR ACU KTM 26:35.894 10 1 lap 0:01.177 2:22.275 5 41.497
14 151 Klink, Nina NED KNMV KTM 26:36.035 10 1 lap 0:00.141 2:22.991 7 41.289
15 47 Gowland, Chelsea GBR ACU Honda 26:44.117 10 1 lap 0:08.082 2:23.144 5 41.245
16 73 Pettersen, Marie S. NOR NMF Yamaha 26:47.795 10 1 lap 0:03.678 2:21.795 3 41.638
17 43 Durston, Kayleigh GBR ACU Honda 27:02.664 10 1 lap 0:14.869 2:24.835 2 40.764
18 30 Hamlet, Gabrielle GBR ACU Suzuki 27:10.283 10 1 lap 0:07.619 2:25.750 3 40.508
19 34 Dunlop, Alix GBR ACU Honda 27:21.841 10 1 lap 0:11.558 2:24.859 4 40.757
20 69 Stoutjesdijk, Stephanie NED KNMV KTM 27:30.609 10 1 lap 0:08.768 2:27.004 10 40.162
21 136 Dunlop, Billie GBR ACU Honda 27:31.781 10 1 lap 0:01.172 2:23.887 9 41.032
22 195 Josta, Samanta LAT LAMSF KTM 27:33.967 10 1 lap 0:02.186 2:26.887 10 40.194
23 51 Marsh, Danni GBR ACU Honda 28:42.920 10 1 lap 1:08.953 2:34.204 1 38.287
24 20 Lukkari, Jutta FIN SML KTM 27:27.111 9 2 laps 1 lap 2:39.275 1 37.068
25 116 Nocera, Francesca ITA FMV KTM 5:00.579 1 10 laps 8 laps 2:30.066 1 39.343

Round 8 – Great Britain – Matterley Basin, Winchester – 19 Aug 2012
MX3 – Time Practice – Classification
Pos Nr Rider Nat. Fed. Bike Bestlaptime in lap Diff. First Diff. Prev. Tot. Laps Speed

1 49 Schmidinger, Günter AUT OeAMTC Honda 2:04.394 8 0:00.000 0:00.000 10 47.462
2 213 Pyrhönen, Antti FIN SML Honda 2:04.629 10 0:00.235 0:00.235 10 47.373
3 52 Walkner, Matthias AUT OeAMTC KTM 2:04.866 8 0:00.472 0:00.237 8 47.283
4 7 Staufer, Michael AUT OeAMTC KTM 2:05.074 10 0:00.680 0:00.208 10 47.204
5 232 Michek, Martin CZE ACCR KTM 2:05.095 9 0:00.701 0:00.021 9 47.196
6 215 Lynggaard, Kasper DEN DMU Kawasaki 2:05.157 6 0:00.763 0:00.062 9 47.173
7 289 Irt, Matevz SLO AMZS Suzuki 2:06.464 7 0:02.070 0:01.307 7 46.685
8 388 Söderberg, Ludvig FIN SML Honda 2:07.066 7 0:02.672 0:00.602 10 46.464
9 62 Gercar, Klemen SLO AMZS Honda 2:08.113 6 0:03.719 0:01.047 9 46.084
10 387 Martens, Yentel BEL MUL Kawasaki 2:08.141 7 0:03.747 0:00.028 8 46.074
11 122 Brunell, Jack GBR ACU Kawasaki 2:08.561 7 0:04.167 0:00.420 10 45.924
12 111 Bartos, Petr CZE ACCR KTM 2:08.708 8 0:04.314 0:00.147 10 45.871
13 300 Koskela, Niko FIN SML Kawasaki 2:08.789 8 0:04.395 0:00.081 11 45.842
14 5 Zerava, Martin CZE ACCR Honda 2:08.937 6 0:04.543 0:00.148 6 45.79
15 262 Lonka, Lukasz POL PZM Honda 2:09.615 11 0:05.221 0:00.678 11 45.55
16 39 Cambre, Jilani BEL FMB Yamaha 2:09.797 9 0:05.403 0:00.182 10 45.486
17 171 Kovalainen, Marko FIN SML Yamaha 2:09.848 5 0:05.454 0:00.051 9 45.469
18 112 Batista, Levy FRA FFM KTM 2:10.591 9 0:06.197 0:00.743 11 45.21
19 241 Rüf, Philip AUT OeAMTC Honda 2:10.695 4 0:06.301 0:00.104 8 45.174
20 71 Valente, Christopher SUI FMS KTM 2:11.256 7 0:06.862 0:00.561 10 44.981
21 23 Verstrepen, Stijn BEL FMB Honda 2:11.568 7 0:07.174 0:00.312 7 44.874
22 88 Roncin, Pierrick FRA FFM Honda 2:11.754 4 0:07.360 0:00.186 9 44.811
23 129 Hill, Ross GBR ACU Suzuki 2:12.896 6 0:08.502 0:01.142 10 44.426
24 222 Purchase, George GBR ACU Kawasaki 2:18.763 9 0:14.369 0:05.867 10 42.547
25 557 Begon, Loic BEL MUL Yamaha 2:21.134 7 0:16.740 0:02.371 8 41.833
26 259 Buso, Mattia ITA FMI KTM 2:21.407 8 0:17.013 0:00.273 8 41.752

VMX – Race 1 – Classification
Pos Nr Rider Nat. Fed. Bike Time laps Diff. First Diff. Prev. Bestlaptime in lap Speed

1 121 King, Darryll NZL MNZ Yamaha 25:41.627 11 0:00.000 0:00.000 2:06.078 7 46.828
2 110 Colomer Genis, Xevi ESP RFME Suzuki 25:43.571 11 0:01.944 0:01.944 2:05.259 10 47.134
3 5 Nilsson, Mats SWE SVEMO Yamaha 25:52.414 11 0:10.787 0:08.843 2:06.663 7 46.612
4 200 Mercer, Phil GBR ACU KTM 25:58.467 11 0:16.840 0:06.053 2:06.731 8 46.587
5 34 Edberg, Jonas SWE SVEMO Honda 26:19.868 11 0:38.241 0:21.401 2:09.128 5 45.722
6 88 Hoptrough, Gary GBR ACU KTM 26:27.006 11 0:45.379 0:07.138 2:09.799 5 45.486
7 23 Visser, Teunis NED KNMV Suzuki 26:52.850 11 1:11.223 0:25.844 2:11.649 4 44.847
8 242 Gajser, Bogomir SLO AMZS KTM 27:15.405 11 1:33.778 0:22.555 2:14.245 3 43.979
9 70 Camps, Alfredo ESP RFME Honda 27:18.720 11 1:37.093 0:03.315 2:11.969 10 44.738
10 36 Gordon, Matt GBR ACU Suzuki 27:30.311 11 1:48.684 0:11.591 2:13.467 9 44.236
11 1 Bal, Pascal BEL FMB Yamaha 27:37.142 11 1:55.515 0:06.831 2:13.367 7 44.269
12 41 Coward, Paul GBR ACU Kawasaki 27:46.674 11 2:05.047 0:09.532 2:16.509 10 43.25
13 278 Tunnel, Tony GBR ACU Kawasaki 27:49.775 11 2:08.148 0:03.101 2:16.358 10 43.298
14 89 Traccan, Thierry FRA FFM Honda 26:02.856 10 1 lap 1 lap 2:18.093 9 42.754
15 31 Bergsma, Peter NED KNMV Suzuki 26:12.778 10 1 lap 0:09.922 2:19.245 3 42.4
16 74 Rey Allue, Juan Carlos ESP RFME Honda 26:15.584 10 1 lap 0:02.806 2:19.662 4 42.273
17 26 Stefansson, Ragnar ISL MSI Kawasaki 26:19.669 10 1 lap 0:04.085 2:17.635 10 42.896
18 32 Vossers, Rudi NED KNMV Kawasaki 26:24.203 10 1 lap 0:04.534 2:22.075 7 41.556
19 24 Seegers, Joel NED KNMV Yamaha 26:52.506 10 1 lap 0:28.303 2:22.230 10 41.51
20 39 Walker, Geoff IRL MCUI Husqvarna 26:55.002 10 1 lap 0:02.496 2:24.686 7 40.806
21 58 Polo, Marco ITA FMI Yamaha 28:02.718 10 1 lap 1:07.716 2:28.633 4 39.722
22 221 Caillouet, Sebastien FRA FFM Yamaha 28:12.839 10 1 lap 0:10.121 2:30.810 2 39.149
23 79 De Monmahou, Arnaud FRA FFM Honda 25:49.334 9 2 laps 1 lap 2:31.061 6 39.084
24 35 Frank, Thomas GER DMSB KTM 26:04.142 9 2 laps 0:14.808 2:30.046 3 39.348
25 401 Looman, Eddie NED KNMV Kawasaki 26:32.338 9 2 laps 0:28.196 2:33.292 7 38.515
26 21 van den Mierden, Oscar NED KNMV Husqvarna 26:45.424 9 2 laps 0:13.086 2:34.791 7 38.142
27 111 Punkki, Juha FIN SML KTM 26:54.380 9 2 laps 0:08.956 2:38.023 9 37.362
28 103 Mangili, Yves FRA FFM KTM 27:01.625 9 2 laps 0:07.245 2:38.093 1 37.345
29 84 Jorda Estany, Josep ESP RFME KTM 28:29.317 9 2 laps 1:27.692 2:46.858 1 35.383
30 99 Rosay, Jean-Yves FRA FFM Honda 27:23.084 8 3 laps 1 lap 2:48.494 1 35.04
31 22 Court, Jonathan GBR ACU Honda 16:41.587 4 7 laps 4 laps 2:32.535 2 38.706
32 30 Gonzalez, Pedro VEN FMV Honda 26:57.595 4 7 laps 10:16.008 2:17.324 1 42.993
33 65 Hendrickx, Erwin NED KNMV Honda 9:02.119 3 8 laps 1 lap 2:14.536 3 43.884

EMX 65 – Qualifying Race – Classification
Pos Nr Rider Nat. Fed. Bike Time laps Diff. First Diff. Prev. Bestlaptime in lap Speed

1 288 Milec, Luka SLO AMZS KTM 16:57.929 5 0:00.000 0:00.000 2:48.394 3 35.061
2 222 Strubhart Moreau, Brian FRA FFM KTM 17:25.505 5 0:27.576 0:27.576 2:46.192 5 35.525
3 394 Facca, Alessandro ITA FMI KTM 17:27.691 5 0:29.762 0:02.186 2:54.423 3 33.849
4 211 Hofer, Rene AUT OeAMTC KTM 17:30.773 5 0:32.844 0:03.082 2:53.725 5 33.985
5 478 Meuwissen, Raf NED KNMV KTM 17:35.177 5 0:37.248 0:04.404 2:53.332 3 34.062
6 424 Mäkinen, Arwid SWE SVEMO KTM 17:41.511 5 0:43.582 0:06.334 2:54.180 4 33.896
7 777 Hiiemagi, Andreas EST EMF KTM 17:43.042 5 0:45.113 0:01.531 2:51.386 5 34.449
8 403 Boegh Damm, Bastian DEN DMU KTM 17:44.662 5 0:46.733 0:01.620 2:51.144 5 34.497
9 489 Olsson, Filip SWE SVEMO KTM 17:47.395 5 0:49.466 0:02.733 2:54.300 5 33.873
10 237 Ramella, Xylian SUI FMS KTM 17:50.504 5 0:52.575 0:03.109 2:49.311 5 34.871
11 741 Moskalyuk, Mykola UKR FMU KTM 17:55.741 5 0:57.812 0:05.237 2:52.961 5 34.135
12 623 Chernov, Dmytro UKR FMU KTM 17:59.208 5 1:01.279 0:03.467 2:54.189 5 33.894
13 410 Dankers, Raivo NED KNMV KTM 18:06.625 5 1:08.696 0:07.417 2:50.833 4 34.56
14 457 König, Hannes GER DMSB KTM 18:30.487 5 1:32.558 0:23.862 3:03.458 5 32.182
15 277 Lucas, Mario ESP RFME KTM 18:33.455 5 1:35.526 0:02.968 3:00.771 3 32.66
16 131 Ivanov, Momchil BUL BMF KTM 18:37.014 5 1:39.085 0:03.559 2:57.417 5 33.278
17 402 Woodcock, Dylan GBR ACU KTM 18:38.255 5 1:40.326 0:01.241 2:57.642 5 33.235
18 208 Barcella, Alberto ITA FMI KTM 18:47.553 5 1:49.624 0:09.298 3:04.134 4 32.064
19 597 Nagy, Anton SWE SVEMO KTM 18:51.972 5 1:54.043 0:04.419 2:58.347 2 33.104
20 26 Halmi, Hakan BUL BMF KTM 18:54.558 5 1:56.629 0:02.586 2:57.595 4 33.244
21 730 Petrashin, Timur RUS MFR KTM 19:00.136 5 2:02.207 0:05.578 2:50.560 4 34.615
22 333 Rigo, Elia ITA FMI KTM 19:03.937 5 2:06.008 0:03.801 3:08.036 4 31.398
23 273 Mausser, Maks SLO AMZS KTM 19:11.634 5 2:13.705 0:07.697 3:09.061 5 31.228
24 33 Georgiev, Julian BUL BMF KTM 19:27.008 5 2:29.079 0:15.374 3:02.010 4 32.438
25 36 Dimitrov, Alex BUL BMF KTM 19:42.795 5 2:44.866 0:15.787 3:13.026 4 30.587
26 420 Van Der Klij, Brian NED KNMV KTM 15:23.512 4 1 lap 1 lap 2:58.043 1 33.161
27 9 Bertotto, Tommaso HUN MAMS KTM 15:44.846 4 1 lap 0:21.334 3:05.223 4 31.875
28 224 Braceras Martinez, David ESP RFME KTM 16:37.290 4 1 lap 0:52.444 3:03.754 1 32.13
29 50 Hranic, Nikola CRO HMS KTM 18:56.264 4 1 lap 2:18.974 2:59.996 4 32.801

EMX 85 – Qualifying Race – Classification
Pos Nr Rider Nat. Fed. Bike Time laps Diff. First Diff. Prev. Bestlaptime in lap Speed

1 426 Mewse, Conrad GBR ACU KTM 19:06.315 7 0:00.000 0:00.000 2:22.303 5 41.489
2 446 Pootjes, Davy NED KNMV KTM 19:17.842 7 0:11.527 0:11.527 2:23.272 4 41.208
3 285 Herbreteau, David FRA FFM Kawasaki 19:32.377 7 0:26.062 0:14.535 2:23.703 3 41.085
4 498 Vaessen, Bas NED KNMV KTM 19:36.138 7 0:29.823 0:03.761 2:24.285 1 40.919
5 284 Camporese, Lorenzo ITA FMI KTM 19:46.598 7 0:40.283 0:10.460 2:26.268 3 40.364
6 200 Zonta, Filippo ITA FMI KTM 19:53.476 7 0:47.161 0:06.878 2:27.385 6 40.058
7 99 Petrov, Ivan BUL BMF KTM 20:04.321 7 0:58.006 0:10.845 2:27.840 4 39.935
8 488 Wittlerbäumer, Tilo GER DMSB KTM 20:06.639 7 1:00.324 0:02.318 2:27.488 4 40.03
9 210 Ragadini, Tomas ITA FMI KTM 20:07.135 7 1:00.820 0:00.496 2:26.922 2 40.185
10 740 Drevinskis, Kristers LAT LAMSF Suzuki 20:23.376 7 1:17.061 0:16.241 2:28.280 4 39.817
11 622 Repcak, Pavol SVK SMF KTM 20:26.239 7 1:19.924 0:02.863 2:30.941 4 39.115
12 731 Sileika, Tomas LAT LAMSF KTM 20:28.515 7 1:22.200 0:02.276 2:27.172 4 40.116
13 331 Malaval, Adrien FRA FFM Suzuki 20:30.420 7 1:24.105 0:01.905 2:30.853 3 39.137
14 472 Meier, Glen DEN DMU KTM 20:31.513 7 1:25.198 0:01.093 2:30.409 6 39.253
15 97 Ivanov, Michael BUL BMF KTM 20:40.966 7 1:34.651 0:09.453 2:28.584 2 39.735
16 261 Prado, Jorge ESP RFME KTM 20:44.753 7 1:38.438 0:03.787 2:28.546 7 39.745
17 335 Lentini, Alessandro ITA FMI KTM 20:51.131 7 1:44.816 0:06.378 2:31.615 6 38.941
18 481 Hsu, Brian GER DMSB Suzuki 20:51.698 7 1:45.383 0:00.567 2:28.438 7 39.774
19 699 Talviku, Tamur EST EMF KTM 20:59.624 7 1:53.309 0:07.926 2:32.942 7 38.603
20 311 Lapucci, Nicholas ITA FMI KTM 21:01.601 7 1:55.286 0:01.977 2:34.082 7 38.317..

EMX 125 – Race 1 – Classification
Pos Nr Rider Nat. Fed. Bike Time laps Diff. First Diff. Prev. Bestlaptime in lap Speed

1 243 Gajser, Tim SLO AMZS KTM 31:39.301 13 0:00.000 0:00.000 2:13.886 3 44.097
2 100 Klingsheim, Magne NOR NMF KTM 31:54.648 13 0:15.347 0:15.347 2:15.365 5 43.615
3 411 Dercourt, Nicolas FRA FFM Yamaha 32:01.045 13 0:21.744 0:06.397 2:15.486 6 43.576
4 95 Furlotti, Simone ITA FMI Suzuki 32:01.539 13 0:22.238 0:00.494 2:15.088 4 43.705
5 79 Corneth, Jaap NED KNMV KTM 32:02.555 13 0:23.254 0:01.016 2:15.905 4 43.442
6 274 Lundgren, Anton SWE SVEMO KTM 32:03.056 13 0:23.755 0:00.501 2:15.279 10 43.643
7 997 Righi, Riccardo ITA FMI KTM 32:04.301 13 0:25.000 0:01.245 2:15.977 5 43.419
8 200 Dunn, James GBR ACU KTM 32:06.539 13 0:27.238 0:02.238 2:13.038 13 44.378
9 16 Adams, Nicholas RSA ACU KTM 32:08.684 13 0:29.383 0:02.145 2:15.445 5 43.59
10 101 Kovar, Vaclav CZE ACCR KTM 32:22.093 13 0:42.792 0:13.409 2:15.043 8 43.719
11 99 Zaragoza Beltran, Jorge ESP RFME Suzuki 32:30.926 13 0:51.625 0:08.833 2:15.468 11 43.582
12 110 Verhaeghe, Alexis FRA FFM Kawasaki 32:35.427 13 0:56.126 0:04.501 2:17.407 3 42.967
13 29 Jacobi, Henry GER DMSB KTM 32:36.032 13 0:56.731 0:00.605 2:16.304 7 43.315
14 114 Della Mora, Alessio ITA FMI KTM 32:39.174 13 0:59.873 0:03.142 2:17.237 5 43.02
15 81 Larranaga, Iker ESP RFME Suzuki 32:42.447 13 1:03.146 0:03.273 2:17.372 6 42.978
16 141 Jonass, Pauls LAT LAMSF KTM 32:44.571 13 1:05.270 0:02.124 2:15.723 5 43.5
17 115 Ekerold, Stefan GER DMSB KTM 32:50.979 13 1:11.678 0:06.408 2:18.431 4 42.649
18 773 Do, Thomas FRA FFM KTM 32:51.964 13 1:12.663 0:00.985 2:16.853 9 43.141
19 148 Eccles, Michael GBR ACU KTM 32:54.633 13 1:15.332 0:02.669 2:18.624 6 42.59
20 77 Jasikonis, Arminas LTU LMSF KTM 33:08.651 13 1:29.350 0:14.018 2:18.470 5 42.637..

EMX 250 – Race 1 – Classification
Pos Nr Rider Nat. Fed. Bike Time laps Diff. First Diff. Prev. Bestlaptime in lap Speed

1 151 Desprey, Maxime FRA FFM Kawasaki 30:44.098 13 0:00.000 0:00.000 2:09.246 3 45.68
2 136 Olsen, Stefan Kjer DEN DMU Yamaha 30:53.758 13 0:09.660 0:09.660 2:10.352 5 45.293
3 71 Graulus, Damon BEL FMB Suzuki 31:01.412 13 0:17.314 0:07.654 2:10.347 3 45.294
4 837 Battig, Alessandro ITA FMI Yamaha 31:06.862 13 0:22.764 0:05.450 2:11.153 3 45.016
5 91 Seewer, Jeremy SUI FMS Suzuki 31:13.554 13 0:29.456 0:06.692 2:12.255 7 44.641
6 172 Van Doninck, Brent BEL FMB KTM 31:20.279 13 0:36.181 0:06.725 2:12.097 3 44.694
7 137 Escoffier, Adrien FRA FFM Kawasaki 31:37.094 13 0:52.996 0:16.815 2:14.037 3 44.048
8 222 Lacan, Jordan FRA FFM Kawasaki 31:40.000 13 0:55.902 0:02.906 2:12.322 3 44.618
9 951 Aubin, Arnaud FRA FFM KTM 31:41.733 13 0:57.635 0:01.733 2:13.610 6 44.188
10 119 Pocock, Mel GBR ACU Yamaha 31:48.359 13 1:04.261 0:06.626 2:12.405 3 44.59
11 61 Olsen, Thomas Kjer DEN DMU Yamaha 31:51.324 13 1:07.226 0:02.965 2:13.375 4 44.266
12 142 Paturel, Benoit FRA FFM Kawasaki 31:52.597 13 1:08.499 0:01.273 2:11.774 3 44.804
13 23 Bernardini, Samuele ITA FMI KTM 31:58.085 13 1:13.987 0:05.488 2:13.519 7 44.218
14 7 Bastemeijer, Donny NED KNMV Honda 31:59.764 13 1:15.666 0:01.679 2:15.000 11 43.733
15 707 Kappel, Robin FRA FFM KTM 32:00.684 13 1:16.586 0:00.920 2:14.125 4 44.019
16 18 De Waal, Micha – Boy NED KNMV Suzuki 32:01.927 13 1:17.829 0:01.243 2:14.683 4 43.836
17 39 Hjortmarker, Eddie SWE SVEMO Suzuki 32:08.930 13 1:24.832 0:07.003 2:14.637 4 43.851
18 140 Hugyecz, Erik HUN MAMS Yamaha 32:14.559 13 1:30.461 0:05.629 2:15.452 4 43.587
19 89 Bogers, Brian NED KNMV KTM 32:15.613 13 1:31.515 0:01.054 2:14.887 3 43.77
20 811 Sterry, Adam GBR ACU Honda 32:20.900 13 1:36.802 0:05.287 2:14.311 2 43.958..

Amat. – Super Final – Classification
Pos Nr Rider Nat. Fed. Bike Time laps Diff. First Diff. Prev. Bestlaptime in lap Speed

1 26 Fletcher, Glen GBR ACU Honda 20:54.474 8 0:00.000 0:00.000 2:18.960 5 42.487
2 22 Wikkiamson, Matthew GBR ACU Suzuki 21:13.289 8 0:18.815 0:18.815 2:20.020 8 42.165
3 12 Purchase, George GBR ACU Kawasaki 21:17.155 8 0:22.681 0:03.866 2:19.324 7 42.376
4 311 Tempest, Jamie GBR ACU Yamaha 21:32.144 8 0:37.670 0:14.989 2:20.365 1 42.062
5 564 Holmes, Leighton GBR ACU Honda 21:36.945 8 0:42.471 0:04.801 2:22.637 6 41.392
6 30 Briscoe, Edward GBR ACU Suzuki 21:50.239 8 0:55.765 0:13.294 2:22.892 2 41.318
7 171 Stealey, Zac GBR ACU Kawasaki 21:55.326 8 1:00.852 0:05.087 2:25.133 4 40.68
8 28 Newman, Luke GBR ACU Kawasaki 22:13.605 8 1:19.131 0:18.279 2:24.285 8 40.919
9 62 Fedorezenk, Mickael FRA FFM Yamaha 22:14.870 8 1:20.396 0:01.265 2:26.377 8 40.334
10 117 Maggio, Loukas GBR ACU Honda 22:24.834 8 1:30.360 0:09.964 2:27.791 5 39.948
11 27 Standaert, Kevin BEL FMB KTM 22:38.297 8 1:43.823 0:13.463 2:29.180 3 39.576
12 44 Bouth, Simon GBR ACU Suzuki 22:41.513 8 1:47.039 0:03.216 2:29.259 3 39.555
13 35 Hughes, Mike GBR ACU Honda 23:09.463 8 2:14.989 0:27.950 2:31.409 3 38.994
14 58 Saunders, Tony GBR ACU Yamaha 23:21.766 8 2:27.292 0:12.303 2:32.485 1 38.719
15 32 Beddows, Martin GBR ACU KTM 23:31.707 8 2:37.233 0:09.941 2:34.384 1 38.242
16 23 Mulder, Tim NED KNMV Honda 20:56.745 7 1 lap 1 lap 2:34.021 5 38.332
17 24 Rietman, Lars NED KNMV Kawasaki 21:19.005 7 1 lap 0:22.260 2:36.924 4 37.623
18 11 Fleming, Gary GBR ACU Honda 22:20.584 7 1 lap 1:01.579 2:43.292 2 36.156
19 200 Harrison, Thom GBR ACU Kawasaki 23:52.570 7 1 lap 1:31.986 2:51.366 2 34.453
20 20 Clayborn, David GBR ACU Kawasaki 21:35.183 6 2 laps 1 lap 2:59.672 1 32.86
21 17 Fulford, Luke GBR ACU Suzuki 20:55.206 5 3 laps 1 lap 3:19.247 5 29.632
22 16 Whittacker, Noel GBR ACU Kawasaki 21:29.334 4 4 laps 1 lap 4:06.705 2 23.931
23 29 Cottingham, John GBR ACU KTM 12:00.852 1 7 laps 3 laps 7:28.244 1 13.171

A voir aussi :

Le commentaires sont fermés.